Time;durP1;ratioP1;P1;durP2;ratioP2;P2;SDS_P1;SDS_P2;PMS_P1;PMS_P2;Temp;Humidity;BMP_temperature;BMP_pressure;BME280_temperature;BME280_humidity;BME280_pressure;Samples;Min_cycle;Max_cycle;Signal;HPM_P1;HPM_P2
2021/11/26 00:02:01;;;;;;;10.07;6.40;;;;;;;4.93;82.32;100039.00;5039668;28;20432;-71
2021/11/26 00:04:27;;;;;;;12.33;6.90;;;;;;;5.11;81.99;100038.50;5040161;28;20435;-71
2021/11/26 00:06:52;;;;;;;11.57;7.17;;;;;;;4.97;82.00;100038.25;5040418;28;20281;-71
2021/11/26 00:09:18;;;;;;;11.10;6.90;;;;;;;4.96;82.03;100033.03;5039368;28;20182;-69
2021/11/26 00:11:43;;;;;;;12.63;7.30;;;;;;;4.92;81.90;100024.34;5040311;28;20163;-71
2021/11/26 00:16:41;;;;;;;11.90;6.60;;;;;;;5.14;81.95;100030.84;5039794;28;20174;-72
2021/11/26 00:19:08;;;;;;;9.40;6.10;;;;;;;4.81;83.32;100028.44;5039986;28;20478;-72
2021/11/26 00:21:36;;;;;;;8.20;5.83;;;;;;;4.88;83.59;100028.59;5005575;28;20471;-71
2021/11/26 00:24:02;;;;;;;12.00;6.80;;;;;;;5.02;83.88;100018.53;5022364;28;20413;-72
2021/11/26 00:26:28;;;;;;;8.93;4.97;;;;;;;4.64;84.59;100020.28;5040372;28;20413;-70
2021/11/26 00:28:53;;;;;;;8.20;5.80;;;;;;;4.93;83.94;100025.25;5039409;28;20433;-71
2021/11/26 00:31:19;;;;;;;6.10;4.77;;;;;;;4.96;82.82;100014.97;5039331;28;20590;-71
2021/11/26 00:33:44;;;;;;;4.57;3.70;;;;;;;4.94;81.98;100016.63;5039384;28;20200;-71
2021/11/26 00:36:10;;;;;;;4.93;3.70;;;;;;;4.97;81.93;100009.81;5039489;28;20547;-72
2021/11/26 00:38:38;;;;;;;7.20;3.53;;;;;;;5.16;81.47;99998.16;5022123;28;20278;-72
2021/11/26 00:41:04;;;;;;;7.90;3.60;;;;;;;5.15;81.39;99990.38;5039606;28;20421;-71
2021/11/26 00:43:30;;;;;;;7.93;3.53;;;;;;;5.20;81.14;99993.91;5039396;28;20799;-71
2021/11/26 00:45:55;;;;;;;10.37;3.70;;;;;;;5.50;80.76;99987.56;5039639;28;20170;-71
2021/11/26 00:48:21;;;;;;;4.77;3.40;;;;;;;5.54;81.19;99972.13;5039252;28;20190;-71
2021/11/26 00:50:46;;;;;;;6.70;4.10;;;;;;;5.43;80.72;99973.66;5039183;28;20246;-71
2021/11/26 00:53:11;;;;;;;7.00;3.63;;;;;;;5.38;80.96;99963.22;5038906;28;20453;-70
2021/11/26 00:55:39;;;;;;;5.27;3.60;;;;;;;5.62;80.24;99951.59;5039735;28;20532;-71
2021/11/26 00:58:05;;;;;;;8.80;5.43;;;;;;;5.46;81.38;99954.75;5038839;28;20182;-70
2021/11/26 01:00:31;;;;;;;5.83;4.87;;;;;;;5.56;81.50;99946.31;5039049;28;20428;-70
2021/11/26 01:02:57;;;;;;;7.17;5.00;;;;;;;5.69;80.86;99935.31;5038711;28;20543;-71
2021/11/26 01:05:22;;;;;;;6.60;5.30;;;;;;;5.67;80.47;99939.63;5039188;28;20432;-70
2021/11/26 01:07:47;;;;;;;10.03;4.90;;;;;;;5.52;81.63;99936.75;5038650;28;20280;-71
2021/11/26 01:10:17;;;;;;;12.27;5.97;;;;;;;5.48;81.97;99934.97;5039168;28;20254;-69
2021/11/26 01:12:42;;;;;;;10.40;5.60;;;;;;;5.46;82.05;99932.34;5038753;28;20170;-70
2021/11/26 01:15:10;;;;;;;8.57;5.47;;;;;;;5.19;82.90;99927.56;5021523;28;20754;-70
2021/11/26 01:17:37;;;;;;;7.90;6.03;;;;;;;5.31;81.95;99920.03;5039236;28;20170;-70
2021/11/26 01:20:04;;;;;;;8.83;6.40;;;;;;;5.14;83.17;99916.28;5038952;28;20417;-70
2021/11/26 01:22:29;;;;;;;9.87;5.43;;;;;;;5.15;83.10;99918.88;5038589;28;20455;-70
2021/11/26 01:24:55;;;;;;;9.43;5.67;;;;;;;5.03;82.51;99916.97;5039472;28;20667;-70
2021/11/26 01:27:20;;;;;;;9.87;6.90;;;;;;;5.17;82.68;99916.34;5038021;28;20216;-71
2021/11/26 01:29:46;;;;;;;6.70;5.70;;;;;;;4.89;83.37;99915.81;5038362;28;20213;-71
2021/11/26 01:32:11;;;;;;;14.83;6.00;;;;;;;5.11;83.22;99916.22;5038538;28;20166;-68
2021/11/26 01:34:37;;;;;;;9.83;6.33;;;;;;;5.03;83.85;99922.13;5038445;28;20261;-70
2021/11/26 01:37:02;;;;;;;12.20;6.10;;;;;;;5.05;83.28;99917.00;5038832;28;20170;-69
2021/11/26 01:39:27;;;;;;;8.67;5.70;;;;;;;4.89;83.75;99915.81;5022019;28;20189;-69
2021/11/26 01:41:54;;;;;;;9.20;5.83;;;;;;;5.04;83.25;99918.69;5042300;28;20181;-71
2021/11/26 01:44:19;;;;;;;8.97;5.53;;;;;;;4.99;83.83;99912.59;5042108;28;20194;-70
2021/11/26 01:46:45;;;;;;;8.87;5.77;;;;;;;5.01;83.51;99902.28;5040170;28;20440;-70
2021/11/26 01:49:12;;;;;;;10.30;6.70;;;;;;;5.18;83.15;99894.81;5022178;28;20486;-70
2021/11/26 01:51:38;;;;;;;10.37;6.50;;;;;;;5.11;84.07;99895.56;5037614;28;20440;-70
2021/11/26 01:54:05;;;;;;;8.80;6.40;;;;;;;4.92;84.10;99882.28;5037860;28;20436;-71
2021/11/26 01:56:30;;;;;;;9.10;6.60;;;;;;;5.01;84.00;99887.63;5038417;28;20906;-70
2021/11/26 01:58:56;;;;;;;11.20;7.00;;;;;;;4.97;83.35;99875.50;5038004;28;20528;-70
2021/11/26 02:01:22;;;;;;;9.90;6.83;;;;;;;5.14;82.61;99874.94;5020516;28;20177;-70
2021/11/26 02:03:47;;;;;;;10.17;6.80;;;;;;;4.98;83.14;99864.34;5037994;28;20860;-71
2021/11/26 02:06:13;;;;;;;16.00;10.67;;;;;;;5.15;82.96;99856.00;5038642;28;20393;-71
2021/11/26 02:08:38;;;;;;;10.73;8.30;;;;;;;5.09;82.23;99867.13;5038037;28;20212;-70
2021/11/26 02:11:04;;;;;;;9.27;7.00;;;;;;;5.08;83.02;99849.00;5039449;28;20308;-70
2021/11/26 02:13:29;;;;;;;17.77;9.27;;;;;;;5.21;82.56;99849.25;5037941;28;20228;-69
2021/11/26 02:15:55;;;;;;;14.53;9.63;;;;;;;5.12;82.11;99843.91;5038122;28;20421;-70
2021/11/26 02:18:20;;;;;;;12.17;8.10;;;;;;;4.84;82.97;99837.38;5037925;28;20555;-70
2021/11/26 02:20:46;;;;;;;11.67;7.47;;;;;;;5.01;82.90;99835.97;5020826;28;20214;-70
2021/11/26 02:23:12;;;;;;;12.90;8.23;;;;;;;4.81;83.68;99838.19;5037749;28;20179;-70
2021/11/26 02:25:39;;;;;;;13.43;8.43;;;;;;;4.82;83.68;99839.94;5020862;28;20213;-70
2021/11/26 02:28:06;;;;;;;13.53;8.00;;;;;;;4.93;83.00;99832.38;5020927;28;20448;-71
2021/11/26 02:30:31;;;;;;;12.40;7.80;;;;;;;4.60;84.55;99836.09;5020687;28;20544;-71
2021/11/26 02:33:18;;;;;;;13.50;7.50;;;;;;;4.63;84.94;99819.81;5037495;28;20572;-71
2021/11/26 02:35:45;;;;;;;15.27;7.93;;;;;;;4.82;83.83;99815.84;5037510;28;20178;-70
2021/11/26 02:38:12;;;;;;;11.17;8.77;;;;;;;4.94;83.91;99813.47;5038125;28;20512;-70
2021/11/26 02:40:40;;;;;;;16.47;9.17;;;;;;;4.80;83.60;99814.94;5038157;28;20691;-71
2021/11/26 02:43:06;;;;;;;16.70;8.83;;;;;;;4.69;83.58;99809.56;5020535;28;20416;-70
2021/11/26 02:45:32;;;;;;;14.30;9.30;;;;;;;4.79;83.02;99800.28;5036847;28;20428;-70
2021/11/26 02:47:58;;;;;;;14.70;10.10;;;;;;;4.80;83.40;99800.28;5037948;28;20468;-69
2021/11/26 02:50:25;;;;;;;14.80;9.93;;;;;;;4.93;83.01;99792.78;5037672;28;20174;-70
2021/11/26 02:52:51;;;;;;;16.30;10.37;;;;;;;4.92;82.63;99791.91;5037506;28;20475;-71
2021/11/26 02:55:20;;;;;;;15.70;11.10;;;;;;;5.02;82.47;99782.59;5037992;28;20448;-71
2021/11/26 02:57:45;;;;;;;16.20;10.70;;;;;;;4.71;83.18;99793.25;5037673;28;20413;-71
2021/11/26 03:00:13;;;;;;;19.67;12.00;;;;;;;4.82;82.62;99784.84;5037608;28;20483;-71
2021/11/26 03:02:38;;;;;;;18.50;12.30;;;;;;;5.10;81.33;99785.31;5037270;28;20202;-70
2021/11/26 03:05:04;;;;;;;14.50;11.90;;;;;;;4.89;82.72;99777.22;5038761;28;20428;-70
2021/11/26 03:07:29;;;;;;;21.07;12.50;;;;;;;4.88;82.56;99779.78;5041204;28;20206;-71
2021/11/26 03:09:55;;;;;;;22.30;12.70;;;;;;;4.56;84.40;99774.94;5041693;28;20174;-71
2021/11/26 03:12:20;;;;;;;16.40;11.80;;;;;;;4.77;83.55;99771.84;5041105;28;20166;-70
2021/11/26 03:14:46;;;;;;;16.70;13.40;;;;;;;4.78;83.08;99759.81;5023834;28;20194;-71
2021/11/26 03:17:11;;;;;;;24.20;13.10;;;;;;;4.87;82.65;99762.53;5041062;28;20182;-70
2021/11/26 03:19:36;;;;;;;16.57;11.20;;;;;;;4.70;82.88;99752.78;5007682;28;20228;-70
2021/11/26 03:22:02;;;;;;;16.87;12.07;;;;;;;4.77;83.35;99752.91;5040833;28;20170;-70
2021/11/26 03:24:27;;;;;;;15.20;12.83;;;;;;;4.84;83.43;99753.06;5040950;28;20532;-68
2021/11/26 03:26:53;;;;;;;16.73;12.40;;;;;;;4.78;83.29;99746.91;5031618;28;20195;-70
2021/11/26 03:29:18;;;;;;;14.40;12.10;;;;;;;4.85;83.82;99744.44;5008693;28;20167;-71
2021/11/26 03:31:44;;;;;;;16.00;11.97;;;;;;;4.94;83.12;99737.69;5021328;28;20167;-70
2021/11/26 03:34:09;;;;;;;19.53;11.63;;;;;;;5.08;82.68;99741.38;5005405;28;20178;-71
2021/11/26 03:36:35;;;;;;;19.20;12.00;;;;;;;4.76;83.71;99748.59;5041177;28;20231;-71
2021/11/26 03:39:01;;;;;;;17.23;13.07;;;;;;;4.88;83.03;99741.03;5041144;28;20197;-71
2021/11/26 03:41:26;;;;;;;16.70;12.67;;;;;;;5.83;88.95;99744.16;5040443;28;20262;-61
2021/11/26 03:43:52;;;;;;;13.87;9.70;;;;;;;10.11;94.83;99722.53;5022939;28;20539;-55
2021/11/26 03:46:19;;;;;;;13.60;11.03;;;;;;;11.61;71.94;99707.47;5022114;28;20462;-58
2021/11/26 03:48:44;;;;;;;16.63;9.80;;;;;;;12.93;66.22;99698.69;5020523;28;20213;-60
2021/11/26 03:51:10;;;;;;;12.10;9.17;;;;;;;11.75;78.47;99702.94;5020444;28;20433;-60
2021/11/26 03:53:35;;;;;;;11.90;8.60;;;;;;;10.04;68.67;99706.94;5020469;28;20353;-61
2021/11/26 03:56:00;;;;;;;9.40;7.80;;;;;;;7.79;69.37;99713.03;5035593;28;20182;-70
2021/11/26 03:58:26;;;;;;;10.97;8.23;;;;;;;6.74;73.85;99719.28;5040028;28;20580;-71
2021/11/26 04:00:51;;;;;;;9.23;8.40;;;;;;;5.88;77.67;99710.59;5020702;28;20186;-71
2021/11/26 04:03:17;;;;;;;11.53;9.47;;;;;;;6.09;76.87;99703.94;5021199;28;20194;-70
2021/11/26 04:05:43;;;;;;;12.20;9.90;;;;;;;6.00;78.33;99700.41;5026975;28;20179;-70
2021/11/26 04:08:08;;;;;;;15.60;10.97;;;;;;;5.92;77.54;99704.59;5020214;28;20203;-71
2021/11/26 04:10:35;;;;;;;17.60;12.60;;;;;;;5.78;78.65;99688.03;5030488;28;20192;-71
2021/11/26 04:13:00;;;;;;;18.07;13.20;;;;;;;5.74;78.78;99698.34;5040287;28;20166;-71
2021/11/26 04:15:26;;;;;;;18.73;12.23;;;;;;;5.38;79.53;99680.66;5036246;28;20486;-69
2021/11/26 04:17:52;;;;;;;18.80;13.03;;;;;;;5.29;80.12;99680.50;5039929;28;20212;-70
2021/11/26 04:20:19;;;;;;;16.70;13.63;;;;;;;5.02;81.00;99681.84;5040523;28;20536;-72
2021/11/26 04:22:45;;;;;;;17.10;14.07;;;;;;;4.71;82.92;99677.09;5039543;28;20424;-75
2021/11/26 04:25:13;;;;;;;16.40;13.63;;;;;;;4.99;81.57;99669.78;5032666;28;20679;-70
2021/11/26 04:27:39;;;;;;;18.47;15.43;;;;;;;4.84;81.85;99665.25;5020531;28;20485;-70
2021/11/26 04:30:05;;;;;;;19.60;16.07;;;;;;;4.80;82.17;99662.59;5039725;28;20441;-70
2021/11/26 04:32:31;;;;;;;19.27;15.90;;;;;;;4.96;82.60;99656.78;5039445;28;20269;-71
2021/11/26 04:34:57;;;;;;;22.47;18.10;;;;;;;4.74;82.58;99662.50;5026711;28;20543;-71
2021/11/26 04:37:23;;;;;;;23.10;18.07;;;;;;;4.61;83.40;99661.41;5039687;28;20456;-72
2021/11/26 04:39:48;;;;;;;20.20;17.00;;;;;;;4.90;83.09;99654.13;5039339;28;20182;-70
2021/11/26 04:42:13;;;;;;;25.23;18.47;;;;;;;4.64;83.17;99652.03;5039305;28;20166;-71
2021/11/26 04:44:39;;;;;;;23.90;19.43;;;;;;;4.73;82.16;99643.53;5032159;28;20174;-70
2021/11/26 04:47:04;;;;;;;25.10;19.63;;;;;;;4.88;81.64;99630.00;5019710;28;20306;-71
2021/11/26 04:49:29;;;;;;;28.80;21.17;;;;;;;4.86;81.95;99626.53;5003189;28;20171;-71
2021/11/26 04:51:55;;;;;;;29.53;20.37;;;;;;;4.68;82.14;99630.56;5019347;28;20171;-71
2021/11/26 04:54:20;;;;;;;26.93;19.20;;;;;;;4.42;82.64;99631.88;5037060;28;20265;-70
2021/11/26 04:56:46;;;;;;;25.70;20.23;;;;;;;4.75;81.34;99622.91;5059513;28;20257;-71
2021/11/26 04:59:11;;;;;;;29.60;22.07;;;;;;;4.91;81.88;99616.25;5058725;28;20189;-71
2021/11/26 05:01:37;;;;;;;26.40;20.13;;;;;;;4.70;81.02;99610.78;5058112;28;20192;-71
2021/11/26 05:04:02;;;;;;;25.93;19.97;;;;;;;4.65;81.66;99612.44;5057096;28;20196;-71
2021/11/26 05:06:28;;;;;;;27.17;22.07;;;;;;;4.92;81.84;99605.09;5057097;28;20463;-71
2021/11/26 05:08:54;;;;;;;24.57;20.93;;;;;;;4.84;81.25;99604.97;5055875;28;20579;-71
2021/11/26 05:11:19;;;;;;;27.20;20.93;;;;;;;4.96;81.28;99594.81;5058202;28;20551;-72
2021/11/26 05:13:44;;;;;;;25.87;20.93;;;;;;;4.82;80.46;99604.94;5044438;28;20529;-70
2021/11/26 05:16:14;;;;;;;28.73;23.00;;;;;;;4.85;80.89;99594.66;5042565;28;20178;-71
2021/11/26 05:18:44;;;;;;;31.40;22.20;;;;;;;4.81;82.45;99592.88;5039293;28;20193;-71
2021/11/26 05:21:10;;;;;;;33.10;23.80;;;;;;;4.76;81.38;99593.66;5040989;28;20406;-70
2021/11/26 05:23:36;;;;;;;37.03;25.07;;;;;;;4.79;81.15;99583.38;5058500;28;20432;-70
2021/11/26 05:26:02;;;;;;;36.67;23.83;;;;;;;4.66;81.28;99584.94;5057803;28;20841;-71
2021/11/26 05:28:28;;;;;;;35.60;23.87;;;;;;;4.62;81.92;99586.59;5054439;28;20523;-71
2021/11/26 05:30:53;;;;;;;39.10;24.80;;;;;;;4.71;81.75;99578.13;5039797;28;20524;-70
2021/11/26 05:33:18;;;;;;;36.77;25.27;;;;;;;4.62;82.69;99576.25;5038727;28;20544;-71
2021/11/26 05:35:44;;;;;;;34.63;24.87;;;;;;;5.01;81.41;99574.22;5055369;28;20200;-70
2021/11/26 05:38:09;;;;;;;37.33;25.37;;;;;;;4.71;81.98;99573.81;5056772;28;20178;-70
2021/11/26 05:40:35;;;;;;;45.77;29.50;;;;;;;4.84;81.03;99566.25;5058436;28;20173;-70
2021/11/26 05:43:00;;;;;;;44.70;27.00;;;;;;;4.71;81.74;99565.22;5041609;28;20205;-70
2021/11/26 05:45:26;;;;;;;37.60;26.00;;;;;;;4.91;81.64;99559.44;5038287;28;20166;-71
2021/11/26 05:47:52;;;;;;;43.23;27.57;;;;;;;4.93;81.32;99553.47;5047176;28;20186;-70
2021/11/26 05:50:19;;;;;;;43.73;26.70;;;;;;;5.14;80.49;99549.41;5046676;28;20749;-70
2021/11/26 05:52:45;;;;;;;44.97;28.00;;;;;;;5.14;80.55;99545.13;5052082;28;20210;-71
2021/11/26 05:55:14;;;;;;;42.00;25.50;;;;;;;4.99;80.86;99540.63;5038321;28;20837;-70
2021/11/26 05:57:40;;;;;;;41.97;27.33;;;;;;;5.03;81.12;99545.00;5037787;28;20228;-71
2021/11/26 06:00:08;;;;;;;37.63;25.20;;;;;;;5.18;80.53;99540.84;5037890;28;20424;-70
2021/11/26 06:02:33;;;;;;;33.73;23.67;;;;;;;4.97;81.36;99539.72;5038252;28;20433;-70
2021/11/26 06:04:58;;;;;;;31.00;22.30;;;;;;;4.99;81.37;99543.22;5037819;28;20714;-70
2021/11/26 06:07:24;;;;;;;39.60;23.53;;;;;;;5.12;80.70;99538.19;5037753;28;20206;-70
2021/11/26 06:09:49;;;;;;;34.50;23.23;;;;;;;5.11;81.40;99529.56;5020945;28;20177;-71
2021/11/26 06:12:14;;;;;;;40.60;24.43;;;;;;;5.20;81.30;99534.00;5037788;28;20232;-72
2021/11/26 06:14:40;;;;;;;38.90;23.90;;;;;;;5.11;81.36;99531.28;5037908;28;20224;-70
2021/11/26 06:17:05;;;;;;;35.73;24.73;;;;;;;5.08;80.75;99523.50;5038320;28;20404;-70
2021/11/26 06:19:31;;;;;;;40.90;26.63;;;;;;;4.98;82.12;99523.41;5037777;28;20181;-71
2021/11/26 06:21:56;;;;;;;35.23;23.53;;;;;;;5.15;81.84;99515.84;5037475;28;20532;-70
2021/11/26 06:24:21;;;;;;;35.13;23.00;;;;;;;5.02;81.21;99517.41;5038319;28;20252;-71
2021/11/26 06:26:47;;;;;;;35.07;23.70;;;;;;;5.17;81.91;99510.72;5037714;28;20178;-70
2021/11/26 06:29:15;;;;;;;49.47;25.93;;;;;;;5.40;80.75;99511.81;5037721;28;20174;-70
2021/11/26 06:31:41;;;;;;;37.73;23.80;;;;;;;5.11;82.08;99514.06;5038166;28;20208;-71
2021/11/26 06:34:06;;;;;;;36.00;24.97;;;;;;;5.20;82.76;99513.31;5037748;28;20504;-71
2021/11/26 06:36:32;;;;;;;39.57;25.23;;;;;;;5.30;82.38;99515.16;5037677;28;20177;-72
2021/11/26 06:38:58;;;;;;;36.60;25.37;;;;;;;5.57;81.35;99509.44;5022615;28;20185;-71
2021/11/26 06:41:24;;;;;;;40.27;26.43;;;;;;;5.27;81.94;99504.78;5041334;28;20499;-72
2021/11/26 06:43:49;;;;;;;44.97;25.77;;;;;;;5.34;81.97;99511.75;5041966;28;20421;-70
2021/11/26 06:46:14;;;;;;;45.53;28.33;;;;;;;5.04;82.98;99507.09;5041893;28;20257;-70
2021/11/26 06:48:40;;;;;;;50.90;26.63;;;;;;;5.40;82.42;99501.47;5041376;28;20275;-70
2021/11/26 06:51:05;;;;;;;42.90;25.77;;;;;;;4.98;84.24;99505.31;5041396;28;20174;-70
2021/11/26 06:53:31;;;;;;;52.03;28.87;;;;;;;5.22;82.80;99506.44;5041175;28;20230;-71
2021/11/26 06:55:56;;;;;;;37.00;24.90;;;;;;;4.96;82.65;99501.84;5041211;28;20170;-70
2021/11/26 06:58:21;;;;;;;40.07;23.87;;;;;;;5.33;81.88;99499.69;5041563;28;20189;-70
2021/11/26 07:00:47;;;;;;;37.17;22.97;;;;;;;5.34;81.21;99495.38;5041311;28;20182;-71
2021/11/26 07:03:12;;;;;;;34.60;22.33;;;;;;;4.94;81.83;99488.06;5040924;28;20198;-71
2021/11/26 07:05:37;;;;;;;36.17;24.30;;;;;;;5.05;82.84;99485.59;5042022;28;20249;-71
2021/11/26 07:08:03;;;;;;;35.70;22.80;;;;;;;5.09;82.69;99489.06;5041031;28;20221;-72
2021/11/26 07:10:29;;;;;;;43.10;27.93;;;;;;;5.16;82.98;99485.72;5041080;28;20249;-71
2021/11/26 07:12:54;;;;;;;36.73;24.30;;;;;;;5.26;83.00;99482.38;5041347;28;20177;-72
2021/11/26 07:15:19;;;;;;;39.73;23.43;;;;;;;5.24;81.77;99478.91;5040977;28;20175;-70
2021/11/26 07:17:45;;;;;;;30.67;21.73;;;;;;;5.34;81.36;99475.56;5040928;28;20217;-71
2021/11/26 07:20:11;;;;;;;34.77;22.23;;;;;;;5.08;82.46;99483.03;5041414;28;20471;-71
2021/11/26 07:22:36;;;;;;;33.50;22.30;;;;;;;5.37;81.89;99469.56;5040724;28;20628;-72
2021/11/26 07:25:03;;;;;;;34.23;21.77;;;;;;;5.43;82.22;99466.19;5040796;28;20428;-71
2021/11/26 07:27:28;;;;;;;31.80;21.50;;;;;;;5.21;81.35;99471.16;5023727;28;20210;-73
2021/11/26 07:29:54;;;;;;;29.60;19.83;;;;;;;5.22;81.87;99460.81;5040709;28;20427;-71
2021/11/26 07:32:20;;;;;;;33.40;21.57;;;;;;;5.06;83.14;99464.94;5040550;28;20167;-71
2021/11/26 07:34:45;;;;;;;34.47;21.77;;;;;;;5.29;83.66;99468.63;5023831;28;20399;-72
2021/11/26 07:37:14;;;;;;;31.57;22.43;;;;;;;5.29;81.65;99453.13;5040724;28;20170;-71
2021/11/26 07:39:40;;;;;;;29.30;21.77;;;;;;;5.34;83.63;99454.88;5040805;28;20185;-71
2021/11/26 07:42:07;;;;;;;30.63;20.57;;;;;;;5.70;80.73;99444.91;5040801;28;20771;-71
2021/11/26 07:44:34;;;;;;;33.50;22.07;;;;;;;5.72;81.20;99449.22;5023156;28;20174;-70
2021/11/26 07:47:00;;;;;;;39.20;24.03;;;;;;;5.70;80.29;99450.91;5040194;28;20420;-71
2021/11/26 07:49:28;;;;;;;32.57;21.70;;;;;;;5.49;81.73;99446.41;5023478;28;20405;-71
2021/11/26 07:51:54;;;;;;;31.80;20.77;;;;;;;5.71;81.48;99444.03;5039394;28;20174;-71
2021/11/26 07:54:20;;;;;;;30.17;20.20;;;;;;;5.38;81.33;99446.31;5039965;28;20465;-72
2021/11/26 07:56:45;;;;;;;30.33;20.63;;;;;;;5.87;80.24;99437.25;5040533;28;20424;-72
2021/11/26 07:59:10;;;;;;;25.60;17.53;;;;;;;5.77;79.23;99430.31;5040199;28;20198;-72
2021/11/26 08:01:36;;;;;;;31.53;19.87;;;;;;;5.81;80.30;99426.88;5040002;28;20174;-71
2021/11/26 08:04:01;;;;;;;22.53;16.53;;;;;;;5.19;80.80;99426.31;5040254;28;20194;-70
2021/11/26 08:06:27;;;;;;;24.10;16.50;;;;;;;5.78;81.56;99425.13;5022722;28;20170;-71
2021/11/26 08:08:52;;;;;;;28.23;17.53;;;;;;;5.51;81.75;99425.78;5039948;28;20221;-70
2021/11/26 08:11:18;;;;;;;23.70;17.30;;;;;;;5.56;81.63;99418.91;5040369;28;20194;-72
2021/11/26 08:13:43;;;;;;;22.00;16.00;;;;;;;5.71;80.70;99418.16;5039858;28;20181;-70
2021/11/26 08:16:09;;;;;;;29.00;18.70;;;;;;;5.87;80.44;99414.88;5039378;28;20202;-71
2021/11/26 08:18:35;;;;;;;23.97;16.87;;;;;;;5.99;80.16;99414.09;5039972;28;20171;-69
2021/11/26 08:21:00;;;;;;;25.63;18.43;;;;;;;5.96;79.90;99414.03;5039751;28;20857;-71
2021/11/26 08:23:27;;;;;;;25.67;18.03;;;;;;;5.95;80.32;99409.72;5039455;28;20257;-71
2021/11/26 08:25:52;;;;;;;28.27;17.43;;;;;;;5.86;80.08;99409.69;5040226;28;20552;-71
2021/11/26 08:28:18;;;;;;;24.00;17.20;;;;;;;5.76;80.22;99397.53;5039534;28;20478;-71
2021/11/26 08:30:43;;;;;;;28.47;16.77;;;;;;;5.79;80.35;99389.78;5039690;28;20232;-71
2021/11/26 08:33:10;;;;;;;24.80;16.23;;;;;;;5.45;81.38;99397.28;5020298;28;20182;-70
2021/11/26 08:35:35;;;;;;;24.40;17.00;;;;;;;5.80;80.05;99388.94;5021989;28;20201;-75
2021/11/26 08:38:00;;;;;;;28.70;17.50;;;;;;;5.79;80.08;99394.94;5038923;28;20392;-75
2021/11/26 08:40:26;;;;;;;26.87;17.00;;;;;;;5.88;80.44;99389.84;5039984;28;20170;-74
2021/11/26 08:42:52;;;;;;;24.00;17.77;;;;;;;5.90;82.05;99388.16;5021916;28;20178;-72
2021/11/26 08:45:19;;;;;;;26.30;18.57;;;;;;;5.82;80.72;99384.63;5039403;28;20202;-72
2021/11/26 08:47:45;;;;;;;24.40;16.63;;;;;;;5.96;80.75;99376.97;5039842;28;20281;-73
2021/11/26 08:50:14;;;;;;;24.80;16.10;;;;;;;5.73;80.38;99373.38;5039239;28;20425;-73
2021/11/26 08:52:40;;;;;;;23.53;16.57;;;;;;;5.77;79.95;99381.16;5038898;28;20527;-71
2021/11/26 08:55:07;;;;;;;28.67;17.63;;;;;;;5.77;79.96;99370.81;5039627;28;20633;-72
2021/11/26 08:57:34;;;;;;;22.63;17.00;;;;;;;5.62;81.05;99369.84;5022113;28;20387;-71
2021/11/26 09:00:00;;;;;;;21.83;16.23;;;;;;;5.68;79.76;99363.84;5039001;28;20456;-71
2021/11/26 09:02:25;;;;;;;24.50;15.33;;;;;;;5.43;80.92;99370.56;5039046;28;20409;-72
2021/11/26 09:04:50;;;;;;;18.27;14.70;;;;;;;5.60;81.19;99360.34;5038658;28;20166;-71
2021/11/26 09:07:16;;;;;;;25.83;15.27;;;;;;;5.28;81.77;99364.41;5038960;28;20213;-72
2021/11/26 09:09:42;;;;;;;24.80;16.03;;;;;;;5.91;80.52;99356.25;5039153;28;20173;-71
2021/11/26 09:12:07;;;;;;;25.73;16.53;;;;;;;5.81;80.30;99351.88;5038800;28;20585;-72
2021/11/26 09:14:33;;;;;;;23.57;16.13;;;;;;;5.81;79.51;99351.88;5038869;28;20500;-73
2021/11/26 09:16:59;;;;;;;31.50;18.57;;;;;;;6.12;78.94;99341.75;5038970;28;20281;-72
2021/11/26 09:19:24;;;;;;;22.20;15.03;;;;;;;5.78;80.51;99344.09;5038604;28;20170;-72
2021/11/26 09:21:49;;;;;;;67.17;20.60;;;;;;;5.65;79.47;99341.41;5021396;28;20556;-73
2021/11/26 09:24:15;;;;;;;23.53;15.40;;;;;;;5.77;79.70;99332.88;5038951;28;20197;-70
2021/11/26 09:26:40;;;;;;;22.33;14.90;;;;;;;5.52;80.10;99337.91;5038683;28;20534;-71
2021/11/26 09:29:06;;;;;;;24.27;15.97;;;;;;;6.00;80.00;99333.06;5038580;28;20209;-70
2021/11/26 09:31:31;;;;;;;20.63;14.97;;;;;;;5.92;79.90;99334.69;5038737;28;20253;-70
2021/11/26 09:33:57;;;;;;;28.23;16.17;;;;;;;6.18;78.65;99327.13;5021155;28;20234;-71
2021/11/26 09:36:23;;;;;;;21.30;16.40;;;;;;;6.17;79.13;99322.78;5038177;28;20535;-71
2021/11/26 09:38:49;;;;;;;19.23;14.50;;;;;;;5.74;81.07;99310.47;5038853;28;20425;-72
2021/11/26 09:41:15;;;;;;;23.27;15.57;;;;;;;5.73;79.24;99308.72;5038235;28;20425;-71
2021/11/26 09:43:41;;;;;;;30.50;19.60;;;;;;;5.93;78.93;99299.34;5021314;28;20229;-71
2021/11/26 09:46:06;;;;;;;29.53;19.27;;;;;;;6.20;78.63;99303.84;5038591;28;20776;-71
2021/11/26 09:48:34;;;;;;;25.47;16.30;;;;;;;6.28;78.37;99296.09;5038076;28;20583;-70
2021/11/26 09:50:59;;;;;;;23.70;15.83;;;;;;;6.31;77.55;99290.94;5038011;28;20174;-72
2021/11/26 09:53:27;;;;;;;19.13;14.60;;;;;;;5.99;77.60;99289.91;5037823;28;20464;-71
2021/11/26 09:56:03;;;;;;;22.00;14.30;;;;;;;6.28;77.37;99284.03;5020999;28;20257;-71
2021/11/26 09:58:29;;;;;;;22.23;15.17;;;;;;;6.80;76.36;99280.69;5038387;28;20417;-71
2021/11/26 10:00:57;;;;;;;16.60;13.13;;;;;;;6.61;75.69;99281.53;5038039;28;20413;-71
2021/11/26 10:03:35;;;;;;;18.00;14.13;;;;;;;6.55;75.49;99272.88;5037867;28;20663;-71
2021/11/26 10:06:00;;;;;;;15.70;12.80;;;;;;;6.45;76.39;99271.13;5037981;28;20396;-70
2021/11/26 10:08:25;;;;;;;17.80;12.47;;;;;;;6.22;75.51;99271.94;5037792;28;20456;-71
2021/11/26 10:10:58;;;;;;;17.27;12.87;;;;;;;6.16;76.12;99263.28;5038519;28;20184;-72
2021/11/26 10:13:23;;;;;;;14.73;11.70;;;;;;;6.63;74.42;99259.97;5022771;28;20450;-71
2021/11/26 10:15:50;;;;;;;15.03;11.80;;;;;;;6.67;74.37;99253.03;5044537;28;20421;-72
2021/11/26 10:18:26;;;;;;;16.03;10.73;;;;;;;6.36;75.31;99251.25;5045029;28;20555;-72
2021/11/26 10:20:57;;;;;;;16.60;11.07;;;;;;;6.40;75.14;99247.81;5044766;28;20470;-76
2021/11/26 10:23:24;;;;;;;16.93;10.77;;;;;;;6.43;75.22;99248.66;5044507;28;20656;-70
2021/11/26 10:25:50;;;;;;;13.77;11.13;;;;;;;6.53;74.67;99235.75;5044515;28;20449;-71
2021/11/26 10:28:18;;;;;;;13.43;10.70;;;;;;;6.47;74.77;99224.53;5044291;28;20442;-70
2021/11/26 10:30:46;;;;;;;15.50;12.53;;;;;;;6.55;74.24;99217.66;5045016;28;20193;-71
2021/11/26 10:33:25;;;;;;;15.43;11.60;;;;;;;6.25;74.54;99229.66;5044348;28;20425;-71
2021/11/26 10:35:53;;;;;;;14.70;11.80;;;;;;;6.25;75.66;99214.13;5044233;28;20421;-68
2021/11/26 10:38:23;;;;;;;15.77;10.87;;;;;;;6.20;75.22;99210.69;5044362;28;20391;-71
2021/11/26 10:40:53;;;;;;;12.73;10.30;;;;;;;6.14;75.92;99208.91;5044570;28;20391;-72
2021/11/26 10:43:19;;;;;;;16.17;11.07;;;;;;;6.19;76.31;99203.78;5045345;28;20415;-71
2021/11/26 10:46:04;;;;;;;18.07;13.30;;;;;;;6.28;75.92;99192.56;5054598;28;20383;-71
2021/11/26 10:59:01;;;;;;;15.03;11.17;;;;;;;6.39;76.02;99173.59;5044279;28;20510;-72
2021/11/26 11:01:28;;;;;;;14.50;10.90;;;;;;;6.15;76.87;99160.63;5043881;28;20481;-72
2021/11/26 11:03:53;;;;;;;15.70;11.63;;;;;;;6.48;75.96;99161.53;5026882;28;20492;-72
2021/11/26 11:06:24;;;;;;;20.07;11.43;;;;;;;5.84;77.57;99160.53;5044056;28;20173;-71
2021/11/26 11:09:05;;;;;;;15.40;11.77;;;;;;;6.14;76.42;99157.16;5044582;28;20198;-70
2021/11/26 11:11:31;;;;;;;16.50;11.80;;;;;;;6.11;76.95;99159.75;5044017;28;20458;-72
2021/11/26 11:13:58;;;;;;;14.93;11.27;;;;;;;5.94;76.82;99146.75;5026788;28;20412;-71
2021/11/26 11:16:24;;;;;;;16.77;11.00;;;;;;;6.42;75.64;99140.84;5043921;28;20519;-70
2021/11/26 11:18:50;;;;;;;20.47;12.90;;;;;;;6.69;74.55;99134.78;5044048;28;20452;-71
2021/11/26 11:21:15;;;;;;;20.83;11.07;;;;;;;6.22;75.64;99137.38;5044169;28;20672;-71
2021/11/26 11:23:41;;;;;;;18.40;13.57;;;;;;;6.50;75.12;99136.53;5043973;28;20185;-71
2021/11/26 11:26:07;;;;;;;21.43;14.00;;;;;;;6.75;73.70;99121.81;5040071;28;20205;-71
2021/11/26 11:28:32;;;;;;;19.27;13.50;;;;;;;6.54;73.50;99122.72;5041016;28;20197;-72
2021/11/26 11:30:58;;;;;;;16.10;12.07;;;;;;;6.43;74.10;99117.53;5040727;28;20425;-72
2021/11/26 11:33:23;;;;;;;21.40;13.40;;;;;;;6.20;74.71;99113.19;5040485;28;20174;-72
2021/11/26 11:35:50;;;;;;;17.60;13.00;;;;;;;6.46;75.02;99114.09;5041177;28;20167;-72